Time;durP1;ratioP1;P1;durP2;ratioP2;P2;SDS_P1;SDS_P2;PMS_P1;PMS_P2;Temp;Humidity;BMP_temperature;BMP_pressure;BME280_temperature;BME280_humidity;BME280_pressure;Samples;Min_cycle;Max_cycle;Signal;HPM_P1;HPM_P2
2022/02/12 00:01:09;;;;;;;9.82;4.05;;;;;;;18.26;41.52;103289.94;5113150;28;20059;-71
2022/02/12 00:03:37;;;;;;;8.90;4.20;;;;;;;18.21;41.63;103284.00;5113589;28;20023;-71
2022/02/12 00:06:03;;;;;;;8.40;3.80;;;;;;;18.23;41.57;103286.56;5113027;28;20291;-72
2022/02/12 00:08:29;;;;;;;11.68;3.72;;;;;;;18.20;41.46;103289.34;5113269;28;20016;-71
2022/02/12 00:10:54;;;;;;;9.93;3.67;;;;;;;18.19;41.39;103296.41;5112749;27;20035;-72
2022/02/12 00:13:22;;;;;;;9.38;4.22;;;;;;;18.16;41.76;103285.13;5113034;28;20020;-71
2022/02/12 00:15:47;;;;;;;7.53;3.70;;;;;;;18.12;41.71;103285.25;5113304;28;20039;-72
2022/02/12 00:18:13;;;;;;;7.35;3.83;;;;;;;18.10;41.73;103281.84;5112234;28;20027;-72
2022/02/12 00:20:38;;;;;;;10.40;4.22;;;;;;;18.05;41.47;103278.50;5113288;28;20039;-71
2022/02/12 00:23:04;;;;;;;9.70;4.20;;;;;;;18.05;41.43;103283.78;5113462;28;20097;-72
2022/02/12 00:25:30;;;;;;;9.73;3.80;;;;;;;18.02;41.42;103278.63;5111761;28;20016;-71
2022/02/12 00:28:02;;;;;;;10.48;3.85;;;;;;;17.99;41.83;103272.66;5113242;28;20022;-72
2022/02/12 00:30:28;;;;;;;10.35;3.80;;;;;;;17.97;41.48;103270.06;5112729;28;20501;-72
2022/02/12 00:32:53;;;;;;;12.30;3.88;;;;;;;17.95;41.61;103269.28;5112399;28;20019;-71
2022/02/12 00:35:18;;;;;;;7.75;4.07;;;;;;;17.91;41.55;103260.66;5113047;28;20016;-71
2022/02/12 00:37:44;;;;;;;9.70;4.30;;;;;;;17.91;41.82;103259.78;5113133;28;20508;-72
2022/02/12 00:40:12;;;;;;;8.70;4.00;;;;;;;17.87;41.51;103255.53;5111801;28;20536;-71
2022/02/12 00:42:37;;;;;;;10.40;3.97;;;;;;;17.85;41.54;103257.34;5112822;28;20040;-71
2022/02/12 00:45:03;;;;;;;8.15;4.00;;;;;;;17.82;41.69;103254.88;5112988;28;20042;-72
2022/02/12 00:47:28;;;;;;;8.70;4.00;;;;;;;17.81;42.27;103256.63;5111979;28;20024;-71
2022/02/12 00:49:54;;;;;;;8.87;4.17;;;;;;;17.80;41.99;103256.69;5112949;28;20034;-71
2022/02/12 00:52:19;;;;;;;9.32;3.80;;;;;;;17.76;41.55;103254.19;5112776;28;20306;-71
2022/02/12 00:54:44;;;;;;;10.40;4.00;;;;;;;17.70;41.80;103246.53;5112291;28;20106;-71
2022/02/12 00:57:09;;;;;;;8.65;4.13;;;;;;;17.73;42.01;103249.03;5111077;28;20272;-72
2022/02/12 00:59:35;;;;;;;7.10;4.17;;;;;;;17.71;41.88;103244.78;5112699;28;20094;-72
2022/02/12 01:02:00;;;;;;;8.10;3.47;;;;;;;17.70;41.60;103243.88;5112042;28;20280;-72
2022/02/12 01:04:25;;;;;;;9.02;4.40;;;;;;;17.67;42.00;103236.09;5112528;28;20526;-72
2022/02/12 01:06:51;;;;;;;9.00;4.05;;;;;;;17.66;41.75;103241.47;5113014;28;20016;-72
2022/02/12 01:09:22;;;;;;;8.13;4.07;;;;;;;17.65;41.49;103239.75;5111931;28;20030;-71
2022/02/12 01:11:47;;;;;;;8.20;4.25;;;;;;;17.61;41.60;103230.22;5112626;28;20398;-72
2022/02/12 01:14:13;;;;;;;8.82;4.03;;;;;;;17.60;41.72;103226.75;5111584;28;20119;-72
2022/02/12 01:16:39;;;;;;;8.43;4.20;;;;;;;17.60;41.39;103229.38;5112756;28;20035;-72
2022/02/12 01:19:04;;;;;;;8.15;4.22;;;;;;;17.58;41.70;103226.81;5112826;28;20027;-71
2022/02/12 01:21:29;;;;;;;10.47;4.43;;;;;;;17.53;41.80;103218.25;5111703;28;20020;-71
2022/02/12 01:23:55;;;;;;;7.97;4.97;;;;;;;17.57;42.40;103224.25;5112798;28;20286;-71
2022/02/12 01:26:21;;;;;;;10.18;3.97;;;;;;;17.59;42.60;103222.38;5112221;28;20280;-71
2022/02/12 01:28:46;;;;;;;8.18;4.30;;;;;;;17.61;42.49;103223.19;5111904;28;20028;-71
2022/02/12 01:31:11;;;;;;;9.03;4.33;;;;;;;17.63;42.15;103223.13;5112192;28;20123;-71
2022/02/12 01:33:36;;;;;;;7.72;4.15;;;;;;;17.64;42.61;103222.19;5112649;28;20272;-71
2022/02/12 01:36:02;;;;;;;8.23;4.10;;;;;;;17.66;42.55;103218.59;5112060;28;20063;-71
2022/02/12 01:38:29;;;;;;;12.27;5.45;;;;;;;17.67;42.42;103215.00;5113497;28;20048;-71
2022/02/12 01:40:55;;;;;;;7.78;4.22;;;;;;;17.69;42.39;103221.09;5116447;28;20471;-71
2022/02/12 01:43:20;;;;;;;9.63;4.30;;;;;;;17.68;42.30;103213.25;5115377;28;20027;-71
2022/02/12 01:45:46;;;;;;;9.85;4.85;;;;;;;17.70;41.95;103219.31;5116328;27;20027;-71
2022/02/12 01:48:14;;;;;;;10.55;4.55;;;;;;;17.70;42.02;103216.66;5116135;28;20555;-71
2022/02/12 01:50:40;;;;;;;8.85;3.90;;;;;;;17.70;41.49;103212.25;5115545;28;20027;-71
2022/02/12 01:53:06;;;;;;;7.38;3.90;;;;;;;17.71;41.70;103207.84;5116345;28;20028;-70
2022/02/12 01:55:32;;;;;;;7.95;4.07;;;;;;;17.70;41.82;103217.50;5116070;28;20042;-71
2022/02/12 01:57:57;;;;;;;8.90;4.32;;;;;;;17.70;41.55;103212.25;5115212;28;20379;-72
2022/02/12 02:00:23;;;;;;;7.82;4.13;;;;;;;17.67;41.20;103201.81;5115468;28;20038;-71
2022/02/12 02:02:49;;;;;;;11.90;4.65;;;;;;;17.68;41.34;103200.91;5116308;28;20034;-71
2022/02/12 02:05:16;;;;;;;8.43;4.50;;;;;;;17.68;41.42;103200.06;5114869;28;20036;-71
2022/02/12 02:07:42;;;;;;;8.32;3.97;;;;;;;17.67;41.06;103190.44;5115873;28;20024;-71
2022/02/12 02:10:09;;;;;;;7.47;4.30;;;;;;;17.65;40.86;103189.66;5115561;28;20031;-71
2022/02/12 02:12:35;;;;;;;9.10;4.40;;;;;;;17.66;40.76;103186.09;5115041;28;20024;-71
2022/02/12 02:15:01;;;;;;;8.07;4.25;;;;;;;17.65;41.08;103195.75;5116013;28;20098;-71
2022/02/12 02:17:26;;;;;;;7.93;4.68;;;;;;;17.64;41.63;103182.66;5114610;28;20034;-71
2022/02/12 02:19:52;;;;;;;8.82;3.97;;;;;;;17.60;41.73;103181.91;5115556;28;20040;-71
2022/02/12 02:22:24;;;;;;;8.57;4.28;;;;;;;17.64;41.39;103180.88;5115314;28;20062;-71
2022/02/12 02:24:50;;;;;;;9.82;4.28;;;;;;;17.64;41.34;103175.59;5114524;28;20479;-70
2022/02/12 02:27:15;;;;;;;8.40;4.20;;;;;;;17.65;41.58;103171.19;5115204;28;20107;-72
2022/02/12 02:29:45;;;;;;;7.65;4.15;;;;;;;17.67;41.44;103170.19;5115092;28;20609;-71
2022/02/12 02:32:11;;;;;;;9.38;4.55;;;;;;;17.67;41.67;103170.19;5114762;28;20034;-71
2022/02/12 02:34:45;;;;;;;7.68;4.45;;;;;;;17.67;41.64;103167.53;5115316;28;20036;-71
2022/02/12 02:37:11;;;;;;;7.57;4.13;;;;;;;17.66;41.24;103167.63;5115200;27;20098;-70
2022/02/12 02:39:36;;;;;;;8.98;3.88;;;;;;;17.67;41.36;103170.19;5114094;28;20597;-71
2022/02/12 02:42:02;;;;;;;8.88;4.03;;;;;;;17.66;41.50;103173.75;5115150;28;20023;-71
2022/02/12 02:44:28;;;;;;;8.40;4.13;;;;;;;17.66;41.35;103168.47;5115004;28;20065;-71
2022/02/12 02:46:56;;;;;;;8.85;3.85;;;;;;;17.67;41.22;103164.06;5114534;28;20047;-70
2022/02/12 02:49:21;;;;;;;8.27;4.55;;;;;;;17.68;41.48;103164.00;5114256;28;20027;-71
2022/02/12 02:57:14;;;;;;;9.35;4.50;;;;;;;17.71;41.17;103153.31;5114770;28;20453;-71
2022/02/12 02:59:39;;;;;;;8.23;4.63;;;;;;;17.72;40.97;103146.25;5114115;28;20462;-71
2022/02/12 03:02:04;;;;;;;9.70;4.50;;;;;;;17.71;40.79;103142.75;5114957;28;20356;-71
2022/02/12 03:04:31;;;;;;;9.68;4.30;;;;;;;17.72;41.02;103133.94;5114459;28;20065;-71
2022/02/12 03:06:56;;;;;;;9.15;4.30;;;;;;;17.71;40.68;103131.38;5114035;28;20039;-71
2022/02/12 03:09:26;;;;;;;8.95;4.30;;;;;;;17.73;40.91;103126.88;5114484;28;20466;-71
2022/02/12 03:11:52;;;;;;;7.88;4.07;;;;;;;17.72;40.78;103128.66;5114833;28;20024;-72
2022/02/12 03:14:17;;;;;;;8.70;4.28;;;;;;;17.73;41.15;103121.59;5113659;28;20031;-72
2022/02/12 03:16:48;;;;;;;9.68;4.50;;;;;;;17.73;40.87;103126.88;5114557;28;20022;-72
2022/02/12 03:19:13;;;;;;;8.52;4.15;;;;;;;17.73;40.98;103114.53;5114078;28;20594;-72
2022/02/12 03:22:00;;;;;;;9.27;4.30;;;;;;;17.74;41.08;103107.50;5113680;28;20072;-72
2022/02/12 03:24:25;;;;;;;8.30;3.88;;;;;;;17.76;40.84;103106.50;5114138;28;20401;-72
2022/02/12 03:26:51;;;;;;;8.07;4.20;;;;;;;17.76;41.16;103103.84;5114660;28;20024;-71
2022/02/12 03:29:16;;;;;;;7.25;4.03;;;;;;;17.77;40.83;103102.94;5113293;28;20749;-71
2022/02/12 03:31:42;;;;;;;9.17;3.83;;;;;;;17.77;41.00;103099.47;5114399;28;20028;-72
2022/02/12 03:34:07;;;;;;;9.52;4.32;;;;;;;17.77;40.82;103102.09;5114541;28;20286;-71
2022/02/12 03:36:33;;;;;;;8.55;4.75;;;;;;;17.75;40.38;103096.88;5113930;28;20114;-72
2022/02/12 03:38:58;;;;;;;9.07;3.90;;;;;;;17.76;40.31;103095.09;5114557;28;20044;-72
2022/02/12 03:41:25;;;;;;;8.77;4.55;;;;;;;17.76;40.73;103092.47;5114243;28;20036;-72
2022/02/12 03:43:50;;;;;;;8.18;4.07;;;;;;;17.76;40.58;103095.94;5113515;28;20024;-71
2022/02/12 03:46:15;;;;;;;8.13;4.13;;;;;;;17.76;41.05;103097.72;5114112;28;20387;-71
2022/02/12 03:48:41;;;;;;;8.30;3.90;;;;;;;17.76;40.72;103106.50;5114304;28;20311;-72
2022/02/12 03:51:06;;;;;;;8.73;4.07;;;;;;;17.79;40.94;103099.38;5113506;28;20279;-71
2022/02/12 03:53:31;;;;;;;9.95;4.30;;;;;;;17.80;40.79;103104.59;5114084;28;20328;-71
2022/02/12 03:55:56;;;;;;;8.27;4.30;;;;;;;17.80;40.57;103106.34;5113063;28;20479;-71
2022/02/12 03:58:22;;;;;;;7.30;3.97;;;;;;;17.80;40.71;103104.59;5113412;28;20155;-71
2022/02/12 04:00:49;;;;;;;10.18;4.40;;;;;;;17.79;40.61;103099.38;5113048;27;20031;-71
2022/02/12 04:03:15;;;;;;;8.38;3.72;;;;;;;17.80;40.67;103094.03;5111812;28;20542;-71
2022/02/12 04:05:46;;;;;;;6.85;3.97;;;;;;;17.78;40.65;103101.16;5113719;28;20024;-71
2022/02/12 04:08:17;;;;;;;9.25;4.15;;;;;;;17.79;40.48;103096.75;5113519;28;20048;-71
2022/02/12 04:10:43;;;;;;;9.68;4.10;;;;;;;17.79;40.40;103094.13;5113189;28;20425;-71
2022/02/12 04:13:08;;;;;;;7.40;4.00;;;;;;;17.77;40.67;103087.13;5112696;28;20490;-71
2022/02/12 04:15:34;;;;;;;9.23;3.90;;;;;;;17.79;40.54;103088.84;5113322;28;20400;-72
2022/02/12 04:18:08;;;;;;;7.25;3.70;;;;;;;17.79;40.72;103084.41;5112855;28;20044;-72
2022/02/12 04:20:33;;;;;;;;;;;;;;;17.79;40.66;103092.31;5113683;28;20027;-70
2022/02/12 04:22:58;;;;;;;8.93;4.43;;;;;;;17.81;40.77;103081.72;5113511;28;19922;-70
2022/02/12 04:25:24;;;;;;;9.07;4.73;;;;;;;17.82;40.64;103080.78;5112138;28;20023;-71
2022/02/12 04:27:50;;;;;;;7.70;3.90;;;;;;;17.81;40.31;103079.06;5113296;28;20332;-72
2022/02/12 04:30:15;;;;;;;7.32;3.90;;;;;;;17.82;40.59;103071.09;5112904;28;20161;-71
2022/02/12 04:32:41;;;;;;;8.23;3.95;;;;;;;17.81;40.70;103073.78;5112247;27;20106;-72
2022/02/12 04:35:09;;;;;;;8.23;3.53;;;;;;;17.80;40.53;103070.31;5113186;28;20016;-72
2022/02/12 04:37:37;;;;;;;9.35;4.20;;;;;;;17.80;40.77;103069.44;5113089;28;20028;-71
2022/02/12 04:40:03;;;;;;;8.20;4.47;;;;;;;17.81;40.59;103060.59;5112152;28;20051;-71
2022/02/12 04:42:29;;;;;;;8.82;3.92;;;;;;;17.81;40.38;103061.44;5112666;28;20072;-72
2022/02/12 04:44:54;;;;;;;7.53;3.85;;;;;;;17.81;40.73;103058.81;5113043;28;20015;-72
2022/02/12 04:47:22;;;;;;;7.82;4.00;;;;;;;17.83;40.67;103048.19;5111873;28;20394;-72
2022/02/12 04:49:49;;;;;;;8.73;3.80;;;;;;;17.83;40.71;103042.91;5113032;28;20030;-72
2022/02/12 04:52:17;;;;;;;10.20;3.95;;;;;;;17.83;40.69;103053.47;5112022;28;20032;-72
2022/02/12 04:54:43;;;;;;;7.93;3.80;;;;;;;17.83;40.51;103043.78;5112861;28;20020;-71
2022/02/12 04:57:09;;;;;;;8.90;4.35;;;;;;;17.82;40.46;103039.44;5112574;28;20076;-71
2022/02/12 04:59:35;;;;;;;8.10;4.13;;;;;;;17.81;40.32;103035.06;5112340;28;20019;-71
2022/02/12 05:02:02;;;;;;;7.72;3.65;;;;;;;17.81;40.47;103044.78;5112965;28;20027;-72
2022/02/12 05:04:27;;;;;;;8.30;4.00;;;;;;;17.81;40.74;103032.44;5112447;28;20788;-72
2022/02/12 05:06:52;;;;;;;6.53;3.35;;;;;;;17.81;40.81;103032.44;5112144;28;20023;-72
2022/02/12 05:09:23;;;;;;;8.60;3.92;;;;;;;17.83;40.34;103029.72;5112577;28;20130;-73
2022/02/12 05:11:50;;;;;;;8.07;3.30;;;;;;;17.82;40.35;103026.25;5113273;28;20488;-72
2022/02/12 05:14:39;;;;;;;7.57;3.58;;;;;;;17.83;40.25;103024.44;5116093;28;20039;-72
2022/02/12 05:17:07;;;;;;;8.50;3.60;;;;;;;17.83;40.18;103032.38;5105932;28;20080;-71
2022/02/12 05:19:32;;;;;;;9.40;4.22;;;;;;;17.82;40.04;103025.41;5116542;28;20454;-71
2022/02/12 05:21:59;;;;;;;9.18;3.80;;;;;;;17.80;40.50;103025.47;5115919;28;20051;-71
2022/02/12 05:24:24;;;;;;;6.57;3.53;;;;;;;17.77;40.38;103021.19;5116004;28;20031;-71
2022/02/12 05:26:50;;;;;;;7.38;3.97;;;;;;;17.80;40.42;103020.19;5116812;28;20425;-72
2022/02/12 05:29:15;;;;;;;8.20;3.63;;;;;;;17.81;40.85;103023.69;5115512;27;20039;-71
2022/02/12 05:31:40;;;;;;;7.43;3.70;;;;;;;17.81;40.73;103016.59;5115662;28;20476;-71
2022/02/12 05:34:06;;;;;;;10.20;3.90;;;;;;;17.82;40.67;103015.69;5116473;28;20030;-71
2022/02/12 05:36:40;;;;;;;7.80;3.63;;;;;;;17.83;40.44;103008.63;5115309;28;20024;-71
2022/02/12 05:39:05;;;;;;;7.93;3.78;;;;;;;17.84;40.42;103005.06;5116031;27;20052;-72
2022/02/12 05:41:31;;;;;;;10.02;3.80;;;;;;;17.84;40.21;103005.06;5115234;28;20028;-72
2022/02/12 05:43:56;;;;;;;7.93;3.97;;;;;;;17.84;40.40;103005.91;5116434;28;20483;-71
2022/02/12 05:46:24;;;;;;;9.35;3.90;;;;;;;17.83;40.07;102995.44;5115669;28;20027;-73
2022/02/12 05:48:50;;;;;;;8.65;3.70;;;;;;;17.82;40.42;102993.75;5115350;28;20052;-72
2022/02/12 05:51:18;;;;;;;6.90;3.58;;;;;;;17.82;40.18;102988.47;5115689;28;20085;-72
2022/02/12 05:53:44;;;;;;;7.90;3.63;;;;;;;17.82;40.83;102989.31;5115845;28;20465;-72
2022/02/12 05:56:12;;;;;;;6.97;3.55;;;;;;;17.80;40.37;102988.53;5114947;28;20020;-72
2022/02/12 05:58:38;;;;;;;7.28;3.58;;;;;;;17.82;40.42;102989.31;5115728;28;20517;-72
2022/02/12 06:01:03;;;;;;;6.95;3.33;;;;;;;17.84;40.42;102983.97;5115835;28;20066;-72
2022/02/12 06:03:29;;;;;;;7.65;3.40;;;;;;;17.84;40.41;102986.59;5114719;28;20047;-72
2022/02/12 06:05:54;;;;;;;9.20;4.15;;;;;;;17.83;40.65;102976.97;5115877;28;20043;-72
2022/02/12 06:08:19;;;;;;;6.90;3.20;;;;;;;17.86;40.95;102982.13;5115569;28;20107;-71
2022/02/12 06:10:45;;;;;;;8.65;4.05;;;;;;;17.87;41.37;102987.31;5115047;28;20347;-71
2022/02/12 06:13:10;;;;;;;6.88;3.30;;;;;;;17.90;41.98;102979.28;5115510;28;20028;-72
2022/02/12 06:15:36;;;;;;;7.00;3.40;;;;;;;17.93;41.98;102981.78;5115619;28;20431;-72
2022/02/12 06:18:05;;;;;;;10.27;3.47;;;;;;;17.94;42.04;102965.03;5114783;28;20264;-72
2022/02/12 06:20:30;;;;;;;6.90;3.47;;;;;;;17.95;42.14;102966.72;5115006;28;20479;-72
2022/02/12 06:22:57;;;;;;;7.80;3.33;;;;;;;17.99;42.36;102956.91;5115621;28;20038;-72
2022/02/12 06:25:22;;;;;;;7.28;3.40;;;;;;;18.00;42.01;102953.34;5113513;28;20524;-72
2022/02/12 06:27:48;;;;;;;7.23;2.90;;;;;;;18.02;42.10;102947.97;5115488;28;20027;-72
2022/02/12 06:30:14;;;;;;;9.52;3.50;;;;;;;18.03;41.80;102947.91;5115095;28;20680;-72
2022/02/12 06:32:39;;;;;;;6.72;3.00;;;;;;;18.04;41.78;102952.28;5114469;28;20027;-72
2022/02/12 06:35:04;;;;;;;6.40;3.10;;;;;;;18.05;42.04;102943.41;5115230;28;20133;-72
2022/02/12 06:37:39;;;;;;;7.72;3.33;;;;;;;18.06;41.90;102945.13;5115044;28;20380;-72
2022/02/12 06:40:04;;;;;;;;;;;;;;;18.06;42.02;102939.00;5115397;28;20502;-71
2022/02/12 06:42:29;;;;;;;6.82;3.22;;;;;;;18.09;42.27;102937.06;5114663;28;19911;-71
2022/02/12 06:44:54;;;;;;;6.67;2.90;;;;;;;18.10;43.28;102938.78;5114391;28;20035;-70
2022/02/12 06:47:20;;;;;;;7.40;3.30;;;;;;;18.08;44.25;102929.22;5114646;28;20020;-71
2022/02/12 06:49:45;;;;;;;7.13;2.50;;;;;;;18.11;44.29;102932.56;5114832;28;20558;-71
2022/02/12 06:52:11;;;;;;;6.68;3.33;;;;;;;18.11;44.48;102929.91;5114117;27;20026;-71
2022/02/12 06:54:36;;;;;;;7.18;2.70;;;;;;;18.13;44.10;102933.38;5115037;28;20020;-71
2022/02/12 06:57:01;;;;;;;9.05;3.22;;;;;;;18.13;44.26;102938.63;5114760;28;20027;-69
2022/02/12 06:59:27;;;;;;;6.45;3.10;;;;;;;18.15;42.79;102938.56;5113559;28;20028;-71
2022/02/12 07:01:52;;;;;;;8.48;3.53;;;;;;;18.13;42.36;102929.84;5113977;28;20570;-68
2022/02/12 07:04:18;;;;;;;7.60;3.20;;;;;;;18.13;43.51;102929.84;5114803;28;20020;-68
2022/02/12 07:06:43;;;;;;;8.60;3.00;;;;;;;18.17;43.51;102936.69;5113808;28;20015;-69
2022/02/12 07:09:11;;;;;;;8.32;3.38;;;;;;;18.17;43.39;102927.94;5114281;28;20031;-71
2022/02/12 07:11:38;;;;;;;6.28;2.88;;;;;;;18.22;43.34;102933.84;5114659;28;20031;-69
2022/02/12 07:14:03;;;;;;;6.28;2.70;;;;;;;18.24;43.37;102937.25;5113758;28;20028;-70
2022/02/12 07:16:29;;;;;;;8.38;3.05;;;;;;;18.25;43.31;102939.81;5114077;28;20079;-71
2022/02/12 07:18:54;;;;;;;7.30;3.08;;;;;;;18.25;41.02;102934.53;5114404;28;20080;-68
2022/02/12 07:21:19;;;;;;;7.33;3.03;;;;;;;18.24;42.65;102934.59;5112985;28;20039;-68
2022/02/12 07:23:44;;;;;;;8.30;2.95;;;;;;;18.27;42.82;102937.94;5114358;28;20279;-68
2022/02/12 07:26:10;;;;;;;6.15;2.63;;;;;;;18.29;43.21;102933.47;5114114;28;20020;-68
2022/02/12 07:28:40;;;;;;;6.80;2.85;;;;;;;18.29;41.72;102932.59;5112991;28;20054;-71
2022/02/12 07:31:07;;;;;;;7.20;2.90;;;;;;;18.26;40.60;102922.19;5114103;28;20107;-68
2022/02/12 07:33:32;;;;;;;7.82;3.38;;;;;;;18.25;42.94;102929.25;5113812;28;20429;-69
2022/02/12 07:35:57;;;;;;;8.30;2.83;;;;;;;18.25;43.25;102931.06;5113151;28;20031;-69
2022/02/12 07:38:22;;;;;;;9.10;2.87;;;;;;;18.23;43.16;102920.56;5113556;28;20055;-68
2022/02/12 07:40:48;;;;;;;6.67;3.07;;;;;;;18.28;43.16;102920.34;5114031;28;20327;-69
2022/02/12 07:43:13;;;;;;;6.87;2.90;;;;;;;18.30;43.45;102913.19;5112807;28;20287;-70
2022/02/12 07:45:38;;;;;;;5.80;2.55;;;;;;;18.33;43.55;102917.47;5113782;28;20367;-71
2022/02/12 07:48:07;;;;;;;6.47;2.90;;;;;;;18.33;43.88;102913.06;5112868;28;20074;-70
2022/02/12 07:50:33;;;;;;;8.48;3.05;;;;;;;18.36;44.26;102906.75;5113856;28;20103;-70
2022/02/12 07:52:58;;;;;;;9.70;2.85;;;;;;;18.37;43.64;102906.66;5113544;28;20059;-71
2022/02/12 07:55:23;;;;;;;9.27;3.03;;;;;;;18.41;43.52;102912.69;5112624;28;20027;-71
2022/02/12 07:57:48;;;;;;;6.67;2.67;;;;;;;18.44;43.78;102907.25;5113749;28;20055;-70
2022/02/12 08:00:15;;;;;;;6.40;2.70;;;;;;;18.48;43.82;102900.84;5113176;28;20798;-71
2022/02/12 08:02:41;;;;;;;7.45;3.10;;;;;;;18.49;43.93;102903.41;5112673;28;20023;-73
2022/02/12 08:05:08;;;;;;;9.82;3.05;;;;;;;18.52;43.69;102905.06;5113372;28;20425;-70
2022/02/12 08:07:37;;;;;;;8.50;3.17;;;;;;;18.51;43.72;102892.78;5113606;28;20065;-66
2022/02/12 08:11:22;;;;;;;8.25;3.08;;;;;;;18.56;44.11;102897.84;5112752;28;20020;-67
2022/02/12 08:12:51;;;;;;;7.95;3.05;;;;;;;18.54;44.16;102897.06;5113201;28;20039;-67
2022/02/12 08:15:16;;;;;;;7.65;3.13;;;;;;;18.56;43.09;102897.84;5112914;28;20043;-70
2022/02/12 08:17:41;;;;;;;8.57;3.13;;;;;;;18.55;43.91;102893.47;5112101;28;20035;-72
2022/02/12 08:20:09;;;;;;;10.10;2.93;;;;;;;18.56;43.86;102885.47;5113101;28;20035;-70
2022/02/12 08:22:34;;;;;;;6.68;2.78;;;;;;;18.57;44.53;102881.91;5113239;28;20093;-69
2022/02/12 08:24:59;;;;;;;6.32;2.60;;;;;;;18.58;44.31;102880.13;5112848;28;20023;-68
2022/02/12 08:27:27;;;;;;;6.33;2.83;;;;;;;18.62;44.70;102884.31;5112838;28;20032;-69
2022/02/12 08:29:53;;;;;;;19.58;3.17;;;;;;;18.61;44.89;102883.47;5113003;28;20119;-66
2022/02/12 08:32:19;;;;;;;8.63;3.08;;;;;;;18.63;45.21;102880.75;5112354;28;20098;-65
2022/02/12 08:34:44;;;;;;;8.70;3.35;;;;;;;18.63;44.50;102872.84;5113079;28;20022;-65
2022/02/12 08:37:10;;;;;;;5.95;2.55;;;;;;;18.63;44.55;102880.75;5112231;28;20040;-66
2022/02/12 08:39:35;;;;;;;6.43;2.55;;;;;;;18.62;44.57;102874.59;5112698;28;20071;-66
2022/02/12 08:42:02;;;;;;;7.88;3.60;;;;;;;18.63;44.47;102871.03;5112902;28;20027;-66
2022/02/12 08:44:27;;;;;;;6.25;2.33;;;;;;;18.66;44.40;102872.69;5111525;28;20391;-65
2022/02/12 08:46:52;;;;;;;9.30;3.10;;;;;;;18.66;44.89;102875.31;5112460;28;20157;-67
2022/02/12 08:49:18;;;;;;;7.03;2.80;;;;;;;18.67;45.19;102880.53;5112553;28;20111;-67
2022/02/12 08:51:43;;;;;;;6.40;2.67;;;;;;;18.66;44.19;102873.53;5112127;28;20031;-66
2022/02/12 08:54:11;;;;;;;7.35;2.90;;;;;;;18.65;44.87;102863.03;5112582;28;20023;-66
2022/02/12 08:56:38;;;;;;;8.27;2.83;;;;;;;18.66;44.88;102865.59;5112628;28;20043;-66
2022/02/12 08:59:05;;;;;;;7.97;2.75;;;;;;;18.65;44.96;102863.88;5112154;28;20039;-66
2022/02/12 09:01:34;;;;;;;9.85;2.28;;;;;;;18.65;45.38;102863.88;5112385;28;20107;-66
2022/02/12 09:04:03;;;;;;;7.25;2.72;;;;;;;18.65;45.21;102863.88;5112733;28;20038;-66
2022/02/12 09:06:28;;;;;;;6.82;2.58;;;;;;;18.65;45.14;102865.69;5111535;28;20098;-66
2022/02/12 09:08:58;;;;;;;8.25;3.00;;;;;;;18.66;45.05;102864.75;5112692;28;20482;-67
2022/02/12 09:11:25;;;;;;;6.38;2.47;;;;;;;18.60;42.36;102859.78;5112261;28;20024;-64
2022/02/12 09:13:53;;;;;;;6.50;2.40;;;;;;;18.62;43.41;102861.41;5112183;28;20042;-66
2022/02/12 09:16:20;;;;;;;7.35;2.50;;;;;;;18.63;44.68;102865.75;5112409;28;20020;-66
2022/02/12 09:18:45;;;;;;;6.28;2.38;;;;;;;18.67;44.66;102875.25;5112695;28;20023;-66
2022/02/12 09:21:10;;;;;;;4.85;2.00;;;;;;;18.68;44.70;102874.28;5111447;28;20046;-66
2022/02/12 09:23:36;;;;;;;6.47;2.47;;;;;;;18.71;44.84;102867.13;5112440;28;20041;-66
2022/02/12 09:26:01;;;;;;;8.13;2.47;;;;;;;18.71;45.04;102859.22;5112467;28;20510;-66
2022/02/12 09:28:26;;;;;;;8.48;2.95;;;;;;;18.70;44.96;102846.97;5111643;28;20330;-67
2022/02/12 09:30:52;;;;;;;7.97;3.15;;;;;;;18.70;44.98;102839.88;5112542;28;20064;-66
2022/02/12 09:33:17;;;;;;;5.93;2.20;;;;;;;18.70;44.92;102834.59;5112166;28;20044;-67
2022/02/12 09:35:42;;;;;;;6.80;2.25;;;;;;;18.70;45.04;102836.38;5111638;28;20024;-67
2022/02/12 09:38:08;;;;;;;7.38;2.70;;;;;;;18.70;44.54;102837.22;5111949;28;20112;-66
2022/02/12 09:40:33;;;;;;;7.30;3.23;;;;;;;18.67;42.98;102827.69;5111439;28;20032;-69
2022/02/12 09:43:04;;;;;;;6.53;2.15;;;;;;;18.69;44.59;102827.59;5112552;28;20746;-67
2022/02/12 09:45:39;;;;;;;6.68;1.92;;;;;;;18.68;42.94;102815.34;5112101;28;20023;-67
2022/02/12 09:48:04;;;;;;;6.75;2.13;;;;;;;18.68;43.94;102813.53;5111718;28;20061;-69
2022/02/12 09:50:31;;;;;;;7.30;2.38;;;;;;;18.70;43.75;102810.81;5112040;28;20028;-66
2022/02/12 09:52:56;;;;;;;7.20;2.25;;;;;;;18.74;43.77;102806.22;5112263;28;20115;-66
2022/02/12 09:55:24;;;;;;;6.85;2.50;;;;;;;18.76;43.80;102810.50;5111019;28;20515;-66
2022/02/12 09:57:50;;;;;;;7.63;2.45;;;;;;;18.78;44.36;102808.63;5112347;28;20032;-70
2022/02/12 10:00:20;;;;;;;5.50;2.42;;;;;;;18.81;44.21;102803.19;5114993;28;20027;-67
2022/02/12 10:02:46;;;;;;;8.38;2.67;;;;;;;18.83;44.79;102800.47;5115409;28;20023;-68
2022/02/12 10:05:27;;;;;;;7.35;2.60;;;;;;;18.83;44.29;102795.16;5115757;28;20024;-69
2022/02/12 10:08:15;;;;;;;7.63;2.80;;;;;;;18.84;44.54;102786.34;5116060;28;20493;-68
2022/02/12 10:10:45;;;;;;;6.53;2.40;;;;;;;18.84;44.71;102779.28;5115349;28;20031;-66
2022/02/12 10:13:12;;;;;;;9.25;2.90;;;;;;;18.86;44.73;102776.56;5115674;28;20027;-68
2022/02/12 10:15:38;;;;;;;7.13;2.72;;;;;;;18.86;44.81;102776.56;5115468;28;20073;-67
2022/02/12 10:18:03;;;;;;;6.85;2.75;;;;;;;18.80;45.27;102767.16;5115848;28;20024;-67
2022/02/12 10:20:33;;;;;;;5.45;2.22;;;;;;;18.85;44.62;102780.16;5115231;28;20050;-67
2022/02/12 10:23:18;;;;;;;7.10;2.47;;;;;;;18.82;44.92;102773.19;5115192;28;20407;-67
2022/02/12 10:25:46;;;;;;;8.40;2.85;;;;;;;18.82;44.74;102762.63;5115435;28;20034;-68
2022/02/12 10:28:14;;;;;;;7.80;2.33;;;;;;;18.81;44.91;102757.44;5115463;28;20054;-68
2022/02/12 10:30:40;;;;;;;7.35;2.67;;;;;;;18.83;45.05;102752.91;5114653;28;20566;-68
2022/02/12 10:33:07;;;;;;;5.93;2.38;;;;;;;18.82;45.18;102746.78;5115829;28;20023;-67
2022/02/12 10:35:34;;;;;;;6.40;2.10;;;;;;;18.82;45.45;102736.22;5115365;28;20475;-68
2022/02/12 10:38:02;;;;;;;7.72;2.70;;;;;;;18.79;45.39;102733.75;5114597;28;20035;-66
2022/02/12 10:40:29;;;;;;;8.35;3.00;;;;;;;18.81;44.82;102736.28;5114904;28;20034;-67
2022/02/12 10:42:56;;;;;;;6.90;2.17;;;;;;;18.82;45.32;102735.38;5115322;28;20024;-68
2022/02/12 10:45:23;;;;;;;7.00;2.35;;;;;;;18.82;45.45;102732.72;5113991;28;20069;-68
2022/02/12 10:47:49;;;;;;;10.45;2.67;;;;;;;18.83;45.24;102737.06;5115422;28;20165;-67
2022/02/12 10:50:16;;;;;;;5.30;2.33;;;;;;;18.84;45.20;102725.59;5114951;28;20455;-67
2022/02/12 10:52:44;;;;;;;6.28;2.53;;;;;;;18.84;45.45;102721.16;5114484;28;20032;-69
2022/02/12 10:55:30;;;;;;;5.32;2.38;;;;;;;18.86;45.43;102715.78;5114819;28;20028;-67
2022/02/12 10:57:57;;;;;;;6.53;2.15;;;;;;;18.87;45.41;102724.56;5114487;28;20036;-67
2022/02/12 11:00:24;;;;;;;6.13;2.03;;;;;;;18.85;45.43;102717.59;5114395;27;20501;-68
2022/02/12 11:02:50;;;;;;;6.35;2.20;;;;;;;18.85;45.69;102717.59;5115102;28;20419;-69
2022/02/12 11:05:19;;;;;;;5.90;1.88;;;;;;;18.87;45.35;102716.63;5113736;28;20471;-69
2022/02/12 11:07:49;;;;;;;6.32;2.45;;;;;;;18.85;45.05;102703.53;5114779;28;20479;-67
2022/02/12 11:10:15;;;;;;;5.03;2.00;;;;;;;18.87;45.34;102698.13;5114015;28;20024;-68
2022/02/12 11:12:40;;;;;;;6.70;2.78;;;;;;;18.88;45.33;102705.97;5114066;28;20384;-67
2022/02/12 11:15:07;;;;;;;7.05;2.78;;;;;;;18.88;45.33;102691.94;5114857;28;20036;-68
2022/02/12 11:17:33;;;;;;;7.78;3.28;;;;;;;18.88;45.61;102686.66;5114486;28;20020;-68
2022/02/12 11:20:00;;;;;;;7.22;3.55;;;;;;;18.87;45.97;102693.72;5113979;28;20406;-67
2022/02/12 11:22:31;;;;;;;8.18;3.85;;;;;;;18.91;44.73;102683.84;5114229;28;20035;-68
2022/02/12 11:24:57;;;;;;;8.80;3.78;;;;;;;18.91;44.69;102687.31;5116287;28;20026;-70
2022/02/12 11:27:27;;;;;;;8.55;3.97;;;;;;;19.02;45.01;102692.84;5115915;28;20406;-71